Route Details

Aircraft Information
Group: European Fleet
Types: A30F, A31F, B738
Route Data
Distance: 612nm
Duration: 2h 00m
Origin METAR: LEBL 080100Z 05022KT 9999 FEW015 SCT023 BKN033 09/06 Q1027 NOSIG
Dest. METAR: EDDK 080050Z AUTO VRB01KT CAVOK M03/M07 Q1039 NOSIG
Freight Data
(for Feb 8, 2023)
Load Factor:
76%
Manifested Cargo: 51,129lbs
Financial History
Total Freight: 153,893lbs
Average Load: 0lbs/flt
Fuel Used: 83,808lbs
Avg. Fuel Used: 0lbs/flt
Fuel Expense: $35,130
Avg. Fuel Expense: $0
Avg. Fuel Cost: $0/lbs
Total Gross Income: $348,654
Pilot Pay: $1,056
Total Expenses: $72,020
Total Revenue: $238,802
Average Revenue: $0

Capitol Logistics 502




LEBL
Barcelona International Airport
Barcelona, ES
EDDK
Cologne Bonn Airport
Cologne, DE